Startpagina
METAR-TAF:

METAR-TAF

Vliegvelden :

Karachi, Pakistan

breedte: 24-54N, lengte: 067-08E, hoogte: 21 m

Actueel weer

Dit bericht is 37 minuten geleden gemaakt, om 12:25 UTC
Wind 9 kt uit het westzuidwesten
Temperatuur 32°C
Vochtigheid 10%
Druk 1008 hPa
Zicht: 7000 m

METAR: OPKC 191225Z 24009KT 7000 NSC 32/M03 Q1008 NOSIG

Tijdstip: 18:02 (13:02 UTC)

Verwachting

Dit bericht is 3 uur en het 2 minuten geleden gemaakt, om 10:00 UTC
Verwachting geldig van 19 om 12 UTC tot 20 om 18 UTC
Wind 8 kt uit het westen met uitschieters tot 18 kt
Zicht: 6000 m
Wijzigt naar
van 19 om 18 UTC tot 20 om 20 UTC
Wind 10 kt uit het noordnoordwesten
Zicht: 5000 m
rook
Tijdelijke
van 20 om 01 UTC tot 20 om 05 UTC
Wind 8 kt uit het noorden
Zicht: 3000 m
rook

TAF: OPKC 191000Z 1912/2018 27008G18KT 6000 NSC BECMG 1918/2020 34010KT 5000 FU NSC TEMPO 2001/2005 36008KT 3000 FU NSC

Waarnemingen en weersverwachtingen van meer dan 4000 vliegvelden (METAR en TAF).

De beschikbare stations zijn de gele en rode punten op de kaart.

Ga met uw muis naar het station om de naam te zien.

Klik dan om waarnemingen en weersverwachtingen te zien.

kaart wijzigen: klik op de groene knoppen met een zwart kruis om in te zoomen, op de groene knop met een streepje om uit te zoomen of op de groene pijlen voor aangrenzende kaarten.


METAR-TAF: